FDX209 YSSY-YPDN
Flight info
| Callsign | FDX209 |
|---|---|
| Flight time | N/A |
| Altitude | 30000 |
| Route | TESAT H530 IVRAD Q57 DODRO/N0478F320 Q57 MIGAX A464 TN Q23 DN |
| Aircraft | A306/H-SDE3FGHIRWY/LB1 |
Departure
| Time | 2026-05-06 02:22 |
|---|---|
| Airport | Sydney Kingsford Smith International Airport (YSSY) |
Arrival
| Time | N/A |
|---|---|
| Airport | Darwin International Airport / RAAF Darwin (YPDN) |
| Time | Latitude | Longitude | Altitude | Speed | Heading |
|---|---|---|---|---|---|
| 2026-05-06 01:43 | -33.93046 | 151.16767 | 36 ft | 0 kts | 257° |
| 2026-05-06 02:10 | -33.93046 | 151.16768 | 36 ft | 2 kts | 257° |
| 2026-05-06 02:11 | -33.93041 | 151.16798 | 35 ft | 4 kts | 257° |
| 2026-05-06 02:11 | -33.93035 | 151.16830 | 32 ft | 4 kts | 257° |
| 2026-05-06 02:11 | -33.93030 | 151.16856 | 34 ft | 4 kts | 262° |
| 2026-05-06 02:11 | -33.93031 | 151.16886 | 35 ft | 4 kts | 296° |
| 2026-05-06 02:12 | -33.93048 | 151.16908 | 34 ft | 4 kts | 338° |
| 2026-05-06 02:12 | -33.93072 | 151.16916 | 34 ft | 4 kts | 348° |
| 2026-05-06 02:12 | -33.93084 | 151.16919 | 34 ft | 1 kts | 348° |
| 2026-05-06 02:15 | -33.93074 | 151.16917 | 36 ft | 6 kts | 348° |
| 2026-05-06 02:15 | -33.93016 | 151.16919 | 36 ft | 9 kts | 21° |
| 2026-05-06 02:15 | -33.92982 | 151.16977 | 36 ft | 11 kts | 70° |
| 2026-05-06 02:15 | -33.92963 | 151.17066 | 37 ft | 13 kts | 79° |
| 2026-05-06 02:16 | -33.92955 | 151.17174 | 37 ft | 12 kts | 86° |
| 2026-05-06 02:16 | -33.92955 | 151.17271 | 37 ft | 11 kts | 95° |
| 2026-05-06 02:16 | -33.92978 | 151.17376 | 36 ft | 15 kts | 124° |
| 2026-05-06 02:16 | -33.93062 | 151.17419 | 36 ft | 13 kts | 167° |
| 2026-05-06 02:17 | -33.93181 | 151.17450 | 36 ft | 19 kts | 166° |
| 2026-05-06 02:17 | -33.93306 | 151.17485 | 35 ft | 18 kts | 168° |
| 2026-05-06 02:17 | -33.93420 | 151.17503 | 36 ft | 16 kts | 185° |
| 2026-05-06 02:17 | -33.93524 | 151.17513 | 35 ft | 17 kts | 167° |
| 2026-05-06 02:18 | -33.93654 | 151.17548 | 35 ft | 19 kts | 168° |
| 2026-05-06 02:18 | -33.93775 | 151.17578 | 35 ft | 17 kts | 168° |
| 2026-05-06 02:18 | -33.93860 | 151.17640 | 35 ft | 14 kts | 102° |
| 2026-05-06 02:18 | -33.93832 | 151.17800 | 36 ft | 26 kts | 72° |
| 2026-05-06 02:19 | -33.93788 | 151.17997 | 36 ft | 23 kts | 74° |
| 2026-05-06 02:19 | -33.93743 | 151.18176 | 36 ft | 21 kts | 72° |
| 2026-05-06 02:19 | -33.93700 | 151.18341 | 36 ft | 20 kts | 75° |
| 2026-05-06 02:19 | -33.93664 | 151.18493 | 36 ft | 18 kts | 73° |
| 2026-05-06 02:20 | -33.93604 | 151.18756 | 36 ft | 15 kts | 75° |
| 2026-05-06 02:20 | -33.93595 | 151.18871 | 35 ft | 13 kts | 106° |
| 2026-05-06 02:20 | -33.93656 | 151.18942 | 34 ft | 12 kts | 158° |
| 2026-05-06 02:21 | -33.93745 | 151.18948 | 31 ft | 13 kts | 211° |
| 2026-05-06 02:21 | -33.93767 | 151.18915 | 31 ft | 0 kts | 245° |
| 2026-05-06 02:21 | -33.93784 | 151.18858 | 31 ft | 26 kts | 252° |
| 2026-05-06 02:22 | -33.93896 | 151.18375 | 36 ft | 92 kts | 255° |
| 2026-05-06 02:22 | -33.94123 | 151.17419 | 34 ft | 147 kts | 254° |
| 2026-05-06 02:22 | -33.94387 | 151.16038 | 236 ft | 183 kts | 263° |
| 2026-05-06 02:22 | -33.94457 | 151.14529 | 1155 ft | 176 kts | 265° |
| 2026-05-06 02:23 | -33.94446 | 151.13055 | 1953 ft | 188 kts | 277° |
| 2026-05-06 02:23 | -33.94390 | 151.11375 | 2314 ft | 213 kts | 265° |
| 2026-05-06 02:23 | -33.94591 | 151.09556 | 2817 ft | 222 kts | 260° |
| 2026-05-06 02:23 | -33.95078 | 151.07774 | 3480 ft | 227 kts | 249° |
| 2026-05-06 02:24 | -33.95358 | 151.05857 | 3818 ft | 247 kts | 283° |
| 2026-05-06 02:24 | -33.94424 | 151.04137 | 4246 ft | 258 kts | 323° |
| 2026-05-06 02:24 | -33.92934 | 151.02922 | 5107 ft | 258 kts | 331° |
| 2026-05-06 02:24 | -33.91360 | 151.01881 | 5985 ft | 258 kts | 334° |
| 2026-05-06 02:25 | -33.89758 | 151.00878 | 6832 ft | 261 kts | 333° |
| 2026-05-06 02:25 | -33.88151 | 150.99835 | 7624 ft | 265 kts | 332° |
| 2026-05-06 02:25 | -33.86538 | 150.98724 | 8403 ft | 270 kts | 330° |
| 2026-05-06 02:25 | -33.84915 | 150.97547 | 9182 ft | 275 kts | 328° |
| 2026-05-06 02:26 | -33.83281 | 150.96320 | 9956 ft | 279 kts | 327° |
| 2026-05-06 02:26 | -33.81617 | 150.95044 | 10525 ft | 290 kts | 326° |
| 2026-05-06 02:26 | -33.79887 | 150.93701 | 10793 ft | 309 kts | 326° |
| 2026-05-06 02:26 | -33.78028 | 150.92262 | 11045 ft | 326 kts | 326° |
| 2026-05-06 02:27 | -33.76068 | 150.90751 | 11289 ft | 342 kts | 326° |
| 2026-05-06 02:27 | -33.74010 | 150.89171 | 11536 ft | 358 kts | 327° |
| 2026-05-06 02:27 | -33.71874 | 150.87540 | 11833 ft | 370 kts | 327° |
| 2026-05-06 02:27 | -33.69680 | 150.85874 | 12319 ft | 375 kts | 327° |
| 2026-05-06 02:28 | -33.67456 | 150.84185 | 12884 ft | 378 kts | 327° |
| 2026-05-06 02:28 | -33.65252 | 150.82513 | 13462 ft | 381 kts | 327° |
| 2026-05-06 02:28 | -33.63004 | 150.80809 | 14032 ft | 383 kts | 327° |
| 2026-05-06 02:28 | -33.60748 | 150.79080 | 14525 ft | 385 kts | 324° |
| 2026-05-06 02:29 | -33.58648 | 150.77054 | 15012 ft | 388 kts | 318° |
| 2026-05-06 02:29 | -33.56592 | 150.74928 | 15508 ft | 391 kts | 318° |
| 2026-05-06 02:29 | -33.54522 | 150.72781 | 16009 ft | 394 kts | 317° |
| 2026-05-06 02:29 | -33.52479 | 150.70569 | 16477 ft | 398 kts | 316° |
| 2026-05-06 02:30 | -33.50458 | 150.68277 | 16955 ft | 401 kts | 315° |
| 2026-05-06 02:30 | -33.48484 | 150.65956 | 17454 ft | 403 kts | 314° |
| 2026-05-06 02:30 | -33.46501 | 150.63574 | 17915 ft | 405 kts | 313° |
| 2026-05-06 02:30 | -33.44508 | 150.61156 | 18386 ft | 408 kts | 313° |
| 2026-05-06 02:31 | -33.42504 | 150.58719 | 18786 ft | 411 kts | 313° |
| 2026-05-06 02:31 | -33.40482 | 150.56264 | 19184 ft | 413 kts | 313° |
| 2026-05-06 02:31 | -33.38439 | 150.53831 | 19575 ft | 416 kts | 314° |
| 2026-05-06 02:31 | -33.36384 | 150.51444 | 19942 ft | 418 kts | 314° |
| 2026-05-06 02:32 | -33.34278 | 150.49025 | 20320 ft | 420 kts | 315° |
| 2026-05-06 02:32 | -33.32161 | 150.46607 | 20702 ft | 422 kts | 315° |
| 2026-05-06 02:32 | -33.30034 | 150.44178 | 21061 ft | 424 kts | 315° |
| 2026-05-06 02:32 | -33.27893 | 150.41732 | 21432 ft | 426 kts | 315° |
| 2026-05-06 02:33 | -33.25747 | 150.39277 | 21799 ft | 428 kts | 315° |
| 2026-05-06 02:33 | -33.24321 | 150.37646 | 22036 ft | 429 kts | 315° |
| 2026-05-06 02:33 | -33.19270 | 150.31861 | 22828 ft | 435 kts | 315° |
| 2026-05-06 02:34 | -33.17079 | 150.29353 | 23137 ft | 437 kts | 315° |
| 2026-05-06 02:34 | -33.14875 | 150.26832 | 23472 ft | 439 kts | 315° |
| 2026-05-06 02:34 | -33.12660 | 150.24301 | 23764 ft | 442 kts | 315° |
| 2026-05-06 02:34 | -33.10434 | 150.21760 | 24025 ft | 443 kts | 315° |
| 2026-05-06 02:35 | -33.08201 | 150.19214 | 24280 ft | 444 kts | 315° |
| 2026-05-06 02:35 | -33.05960 | 150.16659 | 24555 ft | 445 kts | 315° |
| 2026-05-06 02:35 | -33.03745 | 150.14137 | 24806 ft | 447 kts | 315° |
| 2026-05-06 02:35 | -33.01489 | 150.11569 | 25057 ft | 448 kts | 315° |
| 2026-05-06 02:36 | -32.99225 | 150.08994 | 25310 ft | 449 kts | 315° |
| 2026-05-06 02:36 | -32.96964 | 150.06423 | 25555 ft | 450 kts | 315° |
| 2026-05-06 02:36 | -32.94718 | 150.03873 | 25800 ft | 451 kts | 315° |
| 2026-05-06 02:36 | -32.92444 | 150.01291 | 26030 ft | 452 kts | 315° |
| 2026-05-06 02:37 | -32.90165 | 149.98705 | 26243 ft | 453 kts | 315° |
| 2026-05-06 02:37 | -32.87875 | 149.96111 | 26489 ft | 454 kts | 315° |
| 2026-05-06 02:37 | -32.85591 | 149.93527 | 26772 ft | 453 kts | 315° |
| 2026-05-06 02:37 | -32.84079 | 149.91817 | 26950 ft | 452 kts | 315° |
| 2026-05-06 02:38 | -32.81794 | 149.89233 | 27225 ft | 452 kts | 315° |
| 2026-05-06 02:38 | -32.79515 | 149.86660 | 27571 ft | 450 kts | 314° |
| 2026-05-06 02:38 | -32.77255 | 149.84109 | 27961 ft | 446 kts | 314° |
| 2026-05-06 02:38 | -32.75004 | 149.81567 | 28309 ft | 444 kts | 314° |
| 2026-05-06 02:39 | -32.72793 | 149.79071 | 28652 ft | 443 kts | 314° |
| 2026-05-06 02:39 | -32.70560 | 149.76555 | 28985 ft | 441 kts | 314° |
| 2026-05-06 02:39 | -32.68337 | 149.74050 | 29332 ft | 439 kts | 314° |
| 2026-05-06 02:39 | -32.66124 | 149.71560 | 29672 ft | 437 kts | 314° |
| 2026-05-06 02:40 | -32.63918 | 149.69079 | 30009 ft | 436 kts | 314° |
| 2026-05-06 02:40 | -32.61720 | 149.66602 | 30128 ft | 435 kts | 314° |
| 2026-05-06 02:40 | -32.59527 | 149.64133 | 30136 ft | 434 kts | 314° |
| 2026-05-06 02:41 | -32.55259 | 149.59084 | 30124 ft | 432 kts | 309° |
| 2026-05-06 02:41 | -32.51418 | 149.53680 | 30128 ft | 429 kts | 307° |
| 2026-05-06 02:42 | -32.47645 | 149.48221 | 30131 ft | 426 kts | 307° |
| 2026-05-06 02:42 | -32.43897 | 149.42780 | 30130 ft | 426 kts | 307° |
| 2026-05-06 02:43 | -32.40162 | 149.37378 | 30131 ft | 426 kts | 307° |